Time;durP1;ratioP1;P1;durP2;ratioP2;P2;SDS_P1;SDS_P2;PMS_P1;PMS_P2;Temp;Humidity;BMP_temperature;BMP_pressure;BME280_temperature;BME280_humidity;BME280_pressure;Samples;Min_cycle;Max_cycle;Signal;HPM_P1;HPM_P2
2021/12/02 06:18:06;;;;;;;23.87;15.18;;;;;;;-0.19;88.91;99248.08;1754470;78;21109;-38
2021/12/02 06:20:55;;;;;;;20.82;15.00;;;;;;;-0.18;88.92;99250.69;1670791;82;21160;-40
2021/12/02 06:23:25;;;;;;;25.55;15.83;;;;;;;-0.14;88.95;99259.36;1689173;78;21149;-38
2021/12/02 06:25:51;;;;;;;21.17;15.23;;;;;;;-0.11;88.78;99251.74;1805235;78;20997;-38
2021/12/02 06:28:18;;;;;;;24.10;15.03;;;;;;;-0.09;88.57;99243.22;1795178;78;21470;-38
2021/12/02 06:30:47;;;;;;;21.40;14.55;;;;;;;-0.07;88.47;99228.69;1801319;78;20992;-42
2021/12/02 06:33:14;;;;;;;27.00;16.62;;;;;;;-0.05;88.58;99239.05;1787242;78;21111;-36
2021/12/02 06:35:41;;;;;;;21.12;14.15;;;;;;;0.00;88.62;99240.03;1794863;78;21058;-44
2021/12/02 06:38:08;;;;;;;24.52;15.25;;;;;;;0.04;88.75;99230.25;1778479;79;21069;-43
2021/12/02 06:40:37;;;;;;;23.80;15.05;;;;;;;0.07;88.53;99229.48;1787350;78;21622;-44
2021/12/02 06:43:05;;;;;;;26.85;15.13;;;;;;;0.10;88.48;99248.41;1788268;78;21417;-44
2021/12/02 06:45:31;;;;;;;27.85;14.65;;;;;;;0.11;88.44;99243.71;1794627;78;20933;-44
2021/12/02 06:47:59;;;;;;;20.35;14.13;;;;;;;0.14;88.56;99241.23;1791001;77;21453;-37
2021/12/02 06:50:28;;;;;;;24.77;14.18;;;;;;;0.19;88.68;99240.06;1796741;78;21051;-43
2021/12/02 06:53:00;;;;;;;20.90;15.25;;;;;;;0.23;88.88;99257.30;1795917;78;21507;-44
2021/12/02 06:55:27;;;;;;;22.17;15.32;;;;;;;0.28;88.71;99244.13;1788508;78;21023;-37
2021/12/02 06:57:54;;;;;;;34.45;16.35;;;;;;;0.30;88.76;99240.33;1781164;78;21000;-38
2021/12/02 07:00:21;;;;;;;23.57;14.85;;;;;;;0.31;88.92;99249.37;1786482;78;21440;-44
2021/12/02 07:02:49;;;;;;;24.95;16.60;;;;;;;0.34;88.85;99266.14;1790057;78;20933;-38
2021/12/02 07:05:17;;;;;;;26.97;16.27;;;;;;;0.36;89.02;99261.93;1788005;78;21040;-45
2021/12/02 07:07:45;;;;;;;28.42;16.05;;;;;;;0.39;89.28;99256.84;1784478;78;21039;-37
2021/12/02 07:10:19;;;;;;;25.50;15.25;;;;;;;0.43;89.47;99249.66;1794101;78;21502;-38
2021/12/02 07:12:48;;;;;;;25.15;15.72;;;;;;;0.47;89.61;99254.47;1799107;78;21008;-44
2021/12/02 07:17:45;;;;;;;29.70;14.63;;;;;;;0.56;89.75;99246.95;1835281;76;21758;-38
2021/12/02 07:20:19;;;;;;;20.92;13.93;;;;;;;0.63;89.79;99247.95;1792605;77;21112;-44
2021/12/02 07:22:50;;;;;;;24.27;14.90;;;;;;;0.69;89.63;99246.38;1805928;76;21534;-45
2021/12/02 07:25:20;;;;;;;21.50;13.90;;;;;;;0.74;89.47;99231.05;1756006;76;21093;-37
2021/12/02 07:28:12;;;;;;;20.77;14.70;;;;;;;0.78;89.47;99225.14;1830695;76;21004;-43
2021/12/02 07:30:53;;;;;;;22.45;13.65;;;;;;;0.83;89.37;99227.40;1826344;76;21420;-45
2021/12/02 07:33:28;;;;;;;22.73;14.60;;;;;;;0.88;89.35;99237.81;1816247;76;21498;-45
2021/12/02 07:35:55;;;;;;;25.85;15.80;;;;;;;0.92;89.40;99230.16;1822201;76;21000;-44
2021/12/02 07:38:22;;;;;;;24.47;14.50;;;;;;;0.96;89.19;99220.80;1820935;76;21050;-38
2021/12/02 07:40:49;;;;;;;22.58;14.23;;;;;;;1.00;89.22;99222.19;1826291;76;21289;-44
2021/12/02 07:43:16;;;;;;;21.57;14.75;;;;;;;1.06;89.33;99227.89;1822584;76;20976;-44
2021/12/02 07:45:42;;;;;;;28.45;16.02;;;;;;;1.09;89.29;99226.65;1828255;77;20984;-37
2021/12/02 07:48:12;;;;;;;21.57;14.83;;;;;;;1.12;89.54;99235.75;1823872;76;21035;-44
2021/12/02 07:50:42;;;;;;;23.18;15.28;;;;;;;1.17;89.72;99238.00;1787820;77;20964;-41
2021/12/02 07:53:09;;;;;;;24.80;14.55;;;;;;;1.23;89.85;99226.95;1828611;76;21486;-45
2021/12/02 07:55:38;;;;;;;21.77;14.87;;;;;;;1.31;90.38;99230.54;1829293;76;21000;-46
2021/12/02 07:58:06;;;;;;;25.05;15.68;;;;;;;1.41;90.43;99226.02;1796535;78;20968;-37
2021/12/02 08:00:34;;;;;;;22.45;14.63;;;;;;;1.51;90.38;99229.23;1757413;79;21015;-38
2021/12/02 08:03:01;;;;;;;24.05;14.87;;;;;;;1.62;90.31;99231.98;1801950;78;21110;-38
2021/12/02 08:05:28;;;;;;;24.32;15.03;;;;;;;1.75;90.29;99224.09;1792974;78;21763;-38
2021/12/02 08:07:55;;;;;;;25.25;15.65;;;;;;;1.87;90.62;99224.30;1827899;76;21424;-46
2021/12/02 08:10:25;;;;;;;24.63;14.47;;;;;;;2.01;90.56;99218.08;1828144;76;21102;-39
2021/12/02 08:12:56;;;;;;;22.77;14.33;;;;;;;2.17;90.94;99221.80;1828231;76;21046;-37
2021/12/02 08:15:26;;;;;;;20.75;13.80;;;;;;;2.36;90.12;99216.94;1794966;78;21516;-43
2021/12/02 08:17:55;;;;;;;27.62;14.00;;;;;;;2.55;89.99;99205.20;1793306;78;21428;-37
2021/12/02 08:20:25;;;;;;;24.52;13.32;;;;;;;2.71;89.23;99200.23;1802484;78;21142;-43
2021/12/02 08:22:52;;;;;;;21.87;14.23;;;;;;;2.82;88.29;99200.83;1793564;78;21540;-38
2021/12/02 08:25:21;;;;;;;20.60;13.53;;;;;;;2.90;87.90;99191.48;1795656;78;21880;-37
2021/12/02 08:27:49;;;;;;;19.20;12.85;;;;;;;2.92;87.20;99187.20;1793763;78;21527;-45
2021/12/02 08:30:22;;;;;;;21.25;14.13;;;;;;;2.92;87.33;99179.44;1823797;76;21562;-45
2021/12/02 08:32:47;;;;;;;25.55;14.95;;;;;;;2.88;87.02;99172.49;1827171;76;21433;-38
2021/12/02 08:35:14;;;;;;;20.60;13.45;;;;;;;2.83;86.78;99174.57;1823478;76;21522;-45
2021/12/02 08:37:46;;;;;;;22.40;13.68;;;;;;;2.75;86.82;99173.61;1834354;76;21533;-39
2021/12/02 08:40:16;;;;;;;23.95;13.70;;;;;;;2.69;87.17;99168.37;1825814;76;21297;-38
2021/12/02 08:42:46;;;;;;;24.82;14.50;;;;;;;2.62;87.67;99167.42;1829770;76;20991;-36
2021/12/02 08:45:13;;;;;;;23.83;13.72;;;;;;;2.56;88.20;99164.75;1830694;76;21027;-37
2021/12/02 08:47:44;;;;;;;25.45;15.88;;;;;;;2.57;88.63;99163.48;1838708;76;20983;-43
2021/12/02 08:50:19;;;;;;;24.65;15.35;;;;;;;2.56;88.53;99164.33;1830298;76;21885;-37
2021/12/02 08:52:47;;;;;;;24.10;15.08;;;;;;;2.57;88.90;99162.61;1832634;76;20951;-43
2021/12/02 08:55:14;;;;;;;22.52;14.00;;;;;;;2.59;89.06;99157.90;1796424;78;21100;-44
2021/12/02 08:57:41;;;;;;;22.73;15.08;;;;;;;2.62;89.14;99149.34;1807687;76;21557;-44
2021/12/02 09:00:12;;;;;;;25.97;14.75;;;;;;;2.61;89.13;99147.61;1832434;76;21457;-42
2021/12/02 09:02:39;;;;;;;21.87;13.98;;;;;;;2.62;89.40;99142.46;1796095;78;21056;-45
2021/12/02 09:05:06;;;;;;;23.22;13.93;;;;;;;2.64;89.79;99141.18;1798124;78;21646;-37
2021/12/02 09:07:33;;;;;;;20.85;13.35;;;;;;;2.66;90.31;99150.67;1783356;78;21698;-37
2021/12/02 09:10:01;;;;;;;20.85;11.93;;;;;;;2.68;90.70;99133.92;1833400;76;21074;-37
2021/12/02 09:12:27;;;;;;;19.85;12.37;;;;;;;2.71;91.05;99136.95;1828909;76;21363;-37
2021/12/02 09:14:56;;;;;;;22.27;12.55;;;;;;;2.71;91.33;99137.83;1814513;76;21031;-45
2021/12/02 09:17:24;;;;;;;20.32;12.75;;;;;;;2.74;91.66;99140.89;1796740;78;21372;-44
2021/12/02 09:19:51;;;;;;;20.77;12.75;;;;;;;2.80;91.81;99132.79;1777472;79;21094;-45
2021/12/02 09:22:17;;;;;;;22.22;12.98;;;;;;;2.88;91.83;99127.70;1762270;79;21566;-37
2021/12/02 09:24:44;;;;;;;19.12;12.33;;;;;;;2.92;91.99;99133.36;1755413;79;21074;-44
2021/12/02 09:27:11;;;;;;;24.23;14.78;;;;;;;2.94;92.12;99124.77;1777184;79;21000;-44
2021/12/02 09:29:37;;;;;;;21.52;14.78;;;;;;;2.99;92.07;99130.00;1784091;78;21042;-37
2021/12/02 09:32:05;;;;;;;28.10;14.38;;;;;;;3.01;91.93;99120.53;1763803;79;21025;-38
2021/12/02 09:34:32;;;;;;;19.90;13.20;;;;;;;3.03;92.15;99124.02;1803482;78;21094;-37
2021/12/02 09:36:59;;;;;;;20.02;13.65;;;;;;;3.04;92.25;99115.42;1797762;78;21850;-37
2021/12/02 09:39:30;;;;;;;27.42;14.50;;;;;;;3.07;92.58;99120.60;1766435;79;21675;-38
2021/12/02 09:41:54;;;;;;;23.02;14.33;;;;;;;3.12;92.74;99116.78;1800799;76;21570;-39
2021/12/02 09:44:21;;;;;;;18.87;12.58;;;;;;;3.18;92.60;99111.25;1834517;76;21523;-38
2021/12/02 09:46:48;;;;;;;23.62;12.98;;;;;;;3.24;92.44;99110.88;1823036;76;20999;-38
2021/12/02 09:49:16;;;;;;;19.15;12.95;;;;;;;3.30;92.44;99107.92;1825061;76;21024;-38
2021/12/02 09:52:00;;;;;;;25.75;15.15;;;;;;;3.37;92.25;99104.58;1828820;76;20991;-37
2021/12/02 09:54:19;;;;;;;26.55;14.15;;;;;;;3.46;92.26;99101.20;1825864;77;21142;-38
2021/12/02 09:56:48;;;;;;;21.55;13.68;;;;;;;3.54;91.74;99094.39;1791773;77;21330;-37
2021/12/02 10:02:04;;;;;;;28.92;14.23;;;;;;;3.72;91.31;99076.88;1837695;76;21006;-37
2021/12/02 10:04:32;;;;;;;;;;;;;;;3.92;91.06;99061.05;1808073;77;21039;-37
2021/12/02 10:07:28;;;;;;;26.10;13.70;;;;;;;4.38;90.81;99053.56;1840433;76;20137;-38
2021/12/02 10:10:40;;;;;;;21.87;13.98;;;;;;;4.76;88.21;99051.16;1828466;76;21015;-40
2021/12/02 10:12:27;;;;;;;23.52;13.78;;;;;;;5.01;86.31;99040.42;1801949;77;20948;-39
2021/12/02 10:14:56;;;;;;;23.83;14.03;;;;;;;5.30;85.36;99041.77;1824505;77;21062;-38
2021/12/02 10:17:51;;;;;;;21.05;13.08;;;;;;;5.64;83.17;99038.34;1841207;76;20964;-38
2021/12/02 10:20:32;;;;;;;21.37;13.03;;;;;;;5.95;81.95;99021.89;1830413;76;21582;-45
2021/12/02 10:23:17;;;;;;;19.60;12.55;;;;;;;6.25;79.47;99035.67;1840781;76;21354;-45
2021/12/02 10:25:58;;;;;;;22.60;12.63;;;;;;;6.37;78.31;99024.81;1830161;76;21130;-44
2021/12/02 10:28:27;;;;;;;17.30;11.10;;;;;;;6.38;77.87;99029.60;1828948;76;21470;-44
2021/12/02 10:31:00;;;;;;;17.82;11.70;;;;;;;6.26;77.62;99025.31;1828616;76;21050;-44
2021/12/02 10:33:43;;;;;;;30.12;11.75;;;;;;;6.14;77.74;99037.86;1831782;76;21035;-39
2021/12/02 10:36:47;;;;;;;18.85;11.75;;;;;;;5.88;78.50;99035.72;1834153;76;21280;-38
2021/12/02 10:39:21;;;;;;;14.78;10.85;;;;;;;5.58;79.91;99018.45;1840994;76;20969;-38
2021/12/02 10:42:09;;;;;;;18.05;10.88;;;;;;;5.27;81.62;99008.03;1752222;79;21369;-39
2021/12/02 10:44:39;;;;;;;17.98;11.30;;;;;;;5.07;83.07;99006.73;1842734;76;21053;-38
2021/12/02 10:47:09;;;;;;;25.12;11.70;;;;;;;4.93;84.23;99001.08;1832050;76;21014;-38
2021/12/02 10:49:43;;;;;;;18.42;12.10;;;;;;;4.85;85.08;98991.13;1804518;78;21073;-38
2021/12/02 10:52:23;;;;;;;22.42;12.23;;;;;;;4.78;85.72;98998.89;1796575;78;20988;-38
2021/12/02 10:54:59;;;;;;;21.42;13.25;;;;;;;4.74;86.44;98997.58;1800082;78;21096;-43
2021/12/02 10:57:27;;;;;;;21.75;12.98;;;;;;;4.70;87.23;98998.02;1786650;78;20973;-44
2021/12/02 10:59:55;;;;;;;20.75;11.85;;;;;;;4.64;87.70;99008.37;1801617;78;21069;-45
2021/12/02 11:02:46;;;;;;;24.23;11.97;;;;;;;4.62;88.43;99007.91;1768641;79;21011;-44
2021/12/02 11:05:24;;;;;;;24.70;13.20;;;;;;;4.58;89.06;98998.38;1805528;78;21100;-44
2021/12/02 11:08:04;;;;;;;23.75;13.78;;;;;;;4.54;89.69;98993.21;1795640;78;21325;-44
2021/12/02 11:11:13;;;;;;;23.07;13.40;;;;;;;4.57;90.07;98997.95;1801170;78;21011;-37
2021/12/02 11:14:16;;;;;;;17.17;12.23;;;;;;;4.54;90.41;98993.21;1785679;78;21405;-38
2021/12/02 11:17:38;;;;;;;22.15;11.33;;;;;;;4.54;91.29;98991.91;1798106;78;20970;-37
2021/12/02 11:24:29;;;;;;;17.55;10.88;;;;;;;4.57;93.26;98983.27;1781365;78;21353;-37
2021/12/02 11:28:12;;;;;;;21.02;11.03;;;;;;;4.59;94.24;98986.76;1795965;78;21007;-38
2021/12/02 11:35:45;;;;;;;18.85;12.07;;;;;;;4.58;95.11;98964.31;1748087;79;21169;-38
2021/12/02 11:38:39;;;;;;;21.40;10.93;;;;;;;4.52;95.56;98959.08;1769495;79;21091;-38
2021/12/02 11:41:08;;;;;;;21.02;12.65;;;;;;;4.47;96.21;98955.20;1824637;76;20962;-38
2021/12/02 11:43:48;;;;;;;17.37;11.70;;;;;;;4.46;96.53;98952.16;1825475;76;21318;-47
2021/12/02 11:46:16;;;;;;;22.07;11.88;;;;;;;4.47;97.03;98950.45;1831922;75;20979;-47
2021/12/02 11:49:07;;;;;;;24.05;13.35;;;;;;;4.48;97.39;98949.59;1836920;76;21534;-38
2021/12/02 11:51:34;;;;;;;22.55;11.93;;;;;;;4.51;97.62;98945.70;1824237;76;21016;-37
2021/12/02 11:54:00;;;;;;;34.55;13.62;;;;;;;4.52;98.05;98956.09;1829156;76;21855;-37
2021/12/02 11:56:29;;;;;;;16.67;11.08;;;;;;;4.52;98.14;98948.72;1835024;76;21620;-37
2021/12/02 11:58:57;;;;;;;18.20;13.13;;;;;;;4.53;98.40;98929.75;1795119;77;21874;-38
2021/12/02 12:01:26;;;;;;;19.05;12.53;;;;;;;4.53;98.63;98909.89;1830415;76;21482;-37
2021/12/02 12:04:10;;;;;;;21.97;12.30;;;;;;;4.56;98.98;98913.34;1820918;76;21250;-39
2021/12/02 12:06:38;;;;;;;19.30;11.38;;;;;;;4.59;99.19;98902.56;1761873;79;21096;-36
2021/12/02 12:09:12;;;;;;;21.95;12.53;;;;;;;4.64;99.26;98912.91;1759309;79;21085;-37
2021/12/02 12:11:51;;;;;;;30.80;14.98;;;;;;;4.68;99.33;98914.66;1794048;78;21969;-37
2021/12/02 12:14:38;;;;;;;32.23;17.35;;;;;;;4.71;99.33;98909.06;1783652;79;21159;-38
2021/12/02 12:17:12;;;;;;;23.38;14.47;;;;;;;4.77;99.36;98908.20;1793696;78;21480;-38
2021/12/02 12:19:47;;;;;;;24.00;14.60;;;;;;;4.86;99.34;98907.34;1800450;78;21622;-44
2021/12/02 12:22:32;;;;;;;26.27;15.20;;;;;;;4.92;99.17;98915.11;1785963;79;20953;-43
2021/12/02 12:25:03;;;;;;;36.03;16.35;;;;;;;4.98;98.88;98921.16;1827813;76;21461;-42
2021/12/02 12:27:34;;;;;;;27.17;14.87;;;;;;;5.08;98.72;98916.85;1817930;76;20976;-45
2021/12/02 12:30:14;;;;;;;30.90;15.45;;;;;;;5.15;98.38;98921.60;1824117;76;20984;-38
2021/12/02 12:32:52;;;;;;;27.37;16.45;;;;;;;5.21;97.93;98920.30;1833383;76;20951;-38
2021/12/02 12:35:43;;;;;;;33.40;16.93;;;;;;;5.28;97.73;98920.33;1833167;76;20984;-37
2021/12/02 12:38:04;;;;;;;27.62;16.12;;;;;;;5.39;97.45;98925.47;1825644;76;21494;-37
2021/12/02 12:40:39;;;;;;;29.30;15.65;;;;;;;5.54;96.94;98924.61;1831323;76;20997;-37
2021/12/02 12:43:17;;;;;;;22.70;14.20;;;;;;;5.63;96.33;98926.34;1834650;76;20987;-37
2021/12/02 12:45:44;;;;;;;21.37;14.15;;;;;;;5.71;96.01;98920.25;1816101;78;21538;-37
2021/12/02 12:48:30;;;;;;;24.87;14.60;;;;;;;5.76;95.56;98925.44;1831729;76;20947;-37
2021/12/02 12:51:19;;;;;;;23.62;13.58;;;;;;;5.76;95.53;98926.73;1823924;76;21463;-38
2021/12/02 12:53:49;;;;;;;22.93;14.33;;;;;;;5.78;95.62;98927.14;1756405;79;21704;-38
2021/12/02 12:56:21;;;;;;;25.27;14.10;;;;;;;5.88;95.77;98928.00;1748368;80;21075;-38
2021/12/02 12:59:08;;;;;;;21.52;13.32;;;;;;;5.98;95.12;98937.52;1751699;80;21633;-38
2021/12/02 13:01:39;;;;;;;27.90;15.05;;;;;;;5.98;94.52;98952.24;1761816;79;21015;-38
2021/12/02 13:04:18;;;;;;;20.25;12.25;;;;;;;5.90;94.55;98960.00;1758008;80;21500;-38
2021/12/02 13:07:04;;;;;;;17.85;11.40;;;;;;;5.82;94.59;98956.13;1754489;80;21631;-38
2021/12/02 13:12:20;;;;;;;18.00;11.08;;;;;;;6.08;95.05;98945.69;1767484;79;21011;-38
2021/12/02 13:14:50;;;;;;;20.57;10.60;;;;;;;6.18;94.21;98947.83;1756111;79;21060;-45
2021/12/02 13:17:38;;;;;;;23.35;11.63;;;;;;;6.14;93.82;98946.97;1755069;79;21081;-44
2021/12/02 13:20:21;;;;;;;23.67;11.22;;;;;;;6.05;93.98;98938.36;1754884;79;21037;-38
2021/12/02 13:23:16;;;;;;;18.48;12.00;;;;;;;5.97;94.26;98937.50;1764058;80;21049;-39
2021/12/02 13:26:01;;;;;;;24.77;12.28;;;;;;;5.91;94.56;98947.47;1753527;79;21654;-38
2021/12/02 13:28:37;;;;;;;27.22;12.68;;;;;;;5.81;94.96;98941.42;1771961;77;21391;-36
2021/12/02 13:31:08;;;;;;;20.90;10.68;;;;;;;5.71;95.42;98943.60;1835249;76;21415;-43
2021/12/02 13:34:03;;;;;;;24.15;12.63;;;;;;;5.60;95.77;98941.45;1825211;77;22042;-43
2021/12/02 13:36:38;;;;;;;27.67;12.05;;;;;;;5.52;96.24;98942.78;1843250;75;20965;-42
2021/12/02 13:39:31;;;;;;;22.55;11.97;;;;;;;5.43;96.72;98940.62;1825899;77;21039;-37
2021/12/02 13:42:08;;;;;;;20.85;13.08;;;;;;;5.38;97.00;98934.56;1820595;76;21007;-36
2021/12/02 13:44:44;;;;;;;35.30;15.63;;;;;;;5.32;97.24;98941.91;1840300;76;20976;-36
2021/12/02 13:47:18;;;;;;;29.77;15.63;;;;;;;5.27;97.20;98948.83;1828701;76;21438;-36
2021/12/02 13:49:48;;;;;;;27.67;16.17;;;;;;;5.22;97.51;98947.98;1797259;78;21078;-36
2021/12/02 13:55:15;;;;;;;26.17;14.63;;;;;;;5.15;97.85;98943.64;1808811;78;20993;-36
2021/12/02 13:57:53;;;;;;;26.27;14.50;;;;;;;5.12;98.01;98942.36;1790838;79;20981;-36
2021/12/02 14:00:28;;;;;;;21.05;13.40;;;;;;;5.10;98.19;98954.00;1780889;78;21004;-36
2021/12/02 14:03:01;;;;;;;25.10;13.88;;;;;;;5.06;97.88;98954.89;1826164;76;21496;-38
2021/12/02 14:05:29;;;;;;;28.77;14.98;;;;;;;4.95;97.72;98961.35;1807975;78;21531;-38
2021/12/02 14:08:00;;;;;;;25.15;14.03;;;;;;;4.87;97.91;98968.66;1795660;79;21562;-37
2021/12/02 14:10:29;;;;;;;32.28;16.70;;;;;;;4.80;98.29;98973.84;1788016;78;21507;-38
2021/12/02 14:13:09;;;;;;;34.40;19.00;;;;;;;4.76;98.35;98977.73;1762575;80;21551;-37
2021/12/02 14:15:48;;;;;;;39.80;18.48;;;;;;;4.72;98.34;98981.17;1785169;78;21939;-36
2021/12/02 14:18:21;;;;;;;28.90;17.07;;;;;;;4.67;98.51;98983.75;1794397;79;20977;-38
2021/12/02 14:20:55;;;;;;;32.03;17.02;;;;;;;4.64;98.52;98990.23;1792101;79;21004;-37
2021/12/02 14:23:28;;;;;;;37.35;19.77;;;;;;;4.62;98.46;98985.45;1797106;78;21040;-38
2021/12/02 14:26:02;;;;;;;42.53;21.35;;;;;;;4.61;98.32;98980.28;1762748;79;20993;-38
2021/12/02 14:28:39;;;;;;;39.20;22.87;;;;;;;4.57;98.04;98989.75;1782758;79;21530;-38
2021/12/02 14:31:08;;;;;;;51.80;25.35;;;;;;;4.50;97.98;98993.19;1759610;80;21026;-37
2021/12/02 14:33:41;;;;;;;40.33;21.80;;;;;;;4.38;98.15;98982.35;1788055;79;21047;-38
2021/12/02 14:36:11;;;;;;;43.68;23.02;;;;;;;4.28;98.62;98982.73;1765146;80;21628;-37
2021/12/02 14:38:51;;;;;;;61.18;31.02;;;;;;;4.18;99.09;98990.05;1818841;77;21028;-37
2021/12/02 14:41:28;;;;;;;63.73;31.05;;;;;;;4.07;99.82;98978.77;1813704;77;21022;-37
2021/12/02 14:44:01;;;;;;;54.23;28.90;;;;;;;3.99;100.00;98977.41;1821250;77;21641;-37
2021/12/02 14:46:42;;;;;;;41.42;24.92;;;;;;;3.92;100.00;98974.36;1831943;76;21636;-37
2021/12/02 14:49:24;;;;;;;43.20;21.97;;;;;;;3.87;100.00;98971.31;1842081;76;21118;-38
2021/12/02 14:52:16;;;;;;;36.00;18.42;;;;;;;3.83;100.00;98977.34;1812711;77;21031;-38
2021/12/02 14:54:47;;;;;;;32.70;18.02;;;;;;;3.81;100.00;98981.63;1815128;78;21043;-37
2021/12/02 14:57:19;;;;;;;32.73;18.02;;;;;;;3.78;100.00;98981.19;1831850;77;21031;-37
2021/12/02 14:59:50;;;;;;;35.33;18.57;;;;;;;3.77;100.00;98976.88;1811545;78;21067;-37
2021/12/02 15:02:24;;;;;;;32.53;16.75;;;;;;;3.76;100.00;98982.88;1820555;77;21542;-38
2021/12/02 15:04:53;;;;;;;27.27;14.55;;;;;;;3.75;100.00;98983.74;1820609;77;21028;-38
2021/12/02 15:07:28;;;;;;;28.67;15.00;;;;;;;3.76;100.00;98986.77;1828356;77;21056;-37
2021/12/02 15:10:05;;;;;;;29.05;18.52;;;;;;;3.77;100.00;99000.16;1813035;78;21028;-44
2021/12/02 15:12:34;;;;;;;46.45;20.75;;;;;;;3.78;100.00;98998.01;1820191;77;21643;-44
2021/12/02 15:15:08;;;;;;;44.13;24.27;;;;;;;3.77;100.00;98997.58;1829686;78;21031;-36
2021/12/02 15:17:53;;;;;;;44.55;24.77;;;;;;;3.73;99.94;99004.44;1821542;77;21047;-43
2021/12/02 15:20:40;;;;;;;47.50;25.52;;;;;;;3.66;99.74;99001.38;1841044;77;21601;-43
2021/12/02 15:23:20;;;;;;;48.65;26.52;;;;;;;3.58;99.48;99002.16;1832170;76;21020;-44
2021/12/02 15:25:51;;;;;;;39.45;20.65;;;;;;;3.50;99.89;98998.66;1833006;78;21470;-44
2021/12/02 15:28:28;;;;;;;30.55;16.60;;;;;;;3.46;100.00;99014.14;1807296;77;20977;-43
2021/12/02 15:31:04;;;;;;;28.02;16.50;;;;;;;3.50;100.00;99016.34;1831713;78;21008;-44
2021/12/02 15:33:45;;;;;;;26.70;13.70;;;;;;;3.59;100.00;99018.97;1829765;78;21015;-45
2021/12/02 15:36:16;;;;;;;19.15;11.78;;;;;;;3.67;100.00;99013.45;1832070;78;21517;-45
2021/12/02 15:38:45;;;;;;;16.82;11.20;;;;;;;3.75;100.00;99019.96;1822065;77;21010;-45
2021/12/02 15:41:15;;;;;;;17.27;9.78;;;;;;;3.82;100.00;99028.62;1824790;78;21370;-45
2021/12/02 15:44:00;;;;;;;17.55;10.50;;;;;;;3.84;100.00;99016.59;1827944;77;21023;-45
2021/12/02 15:46:31;;;;;;;13.75;9.10;;;;;;;3.89;100.00;99022.66;1830545;76;20968;-45
2021/12/02 15:48:59;;;;;;;15.95;8.28;;;;;;;3.91;100.00;99020.51;1828916;76;21078;-45
2021/12/02 15:51:27;;;;;;;13.45;8.43;;;;;;;3.95;99.85;99022.27;1808100;76;21120;-46
